createdAt,value
2023-02-27T00:01:15.561Z,94377.20
2023-02-27T00:03:43.032Z,94368.00
2023-02-27T00:06:10.707Z,94363.60
2023-02-27T00:08:38.294Z,94368.60
2023-02-27T00:11:05.858Z,94365.00
2023-02-27T00:13:33.366Z,94366.00
2023-02-27T00:16:00.860Z,94362.20
2023-02-27T00:18:28.543Z,94367.00
2023-02-27T00:20:56.129Z,94366.40
2023-02-27T00:23:23.608Z,94364.00
2023-02-27T00:25:52.254Z,94362.40
2023-02-27T00:28:19.731Z,94366.80
2023-02-27T00:30:47.324Z,94363.40
2023-02-27T00:33:14.814Z,94361.00
2023-02-27T00:35:42.283Z,94359.60
2023-02-27T00:38:09.798Z,94365.60
2023-02-27T00:40:37.432Z,94366.20
2023-02-27T00:43:04.917Z,94368.40
2023-02-27T00:45:32.429Z,94374.00
2023-02-27T00:48:00.219Z,94375.80
2023-02-27T00:50:27.693Z,94373.20
2023-02-27T00:52:55.156Z,94369.20
2023-02-27T00:55:22.604Z,94369.60
2023-02-27T00:57:50.129Z,94366.80
2023-02-27T01:00:17.688Z,94364.80
2023-02-27T01:02:45.210Z,94363.20
2023-02-27T01:05:12.717Z,94361.00
2023-02-27T01:07:40.230Z,94359.20
2023-02-27T01:10:07.979Z,94363.40
2023-02-27T01:12:35.503Z,94363.60
2023-02-27T01:15:03.046Z,94359.80
2023-02-27T01:17:30.518Z,94361.60
2023-02-27T01:19:57.998Z,94354.20
2023-02-27T01:22:25.794Z,94357.00
2023-02-27T01:24:53.339Z,94363.20
2023-02-27T01:27:20.757Z,94360.40
2023-02-27T01:29:48.329Z,94363.80
2023-02-27T01:32:16.013Z,94359.20
2023-02-27T01:34:43.551Z,94361.00
2023-02-27T01:37:11.229Z,94367.00
2023-02-27T01:39:38.746Z,94363.40
2023-02-27T01:42:06.185Z,94360.80
2023-02-27T01:44:33.675Z,94361.80
2023-02-27T01:47:01.125Z,94354.40
2023-02-27T01:49:28.671Z,94358.20
2023-02-27T01:51:56.255Z,94362.60
2023-02-27T01:54:23.704Z,94368.20
2023-02-27T01:56:51.158Z,94366.80
2023-02-27T01:59:18.903Z,94374.80
2023-02-27T02:01:46.354Z,94377.00
2023-02-27T02:04:13.784Z,94373.00
2023-02-27T02:06:41.290Z,94377.40
2023-02-27T02:09:08.814Z,94379.20
2023-02-27T02:11:36.294Z,94374.40
2023-02-27T02:14:03.815Z,94373.40
2023-02-27T02:16:31.373Z,94366.80
2023-02-27T02:18:58.909Z,94364.40
2023-02-27T02:21:26.831Z,94359.60
2023-02-27T02:23:54.591Z,94361.20
2023-02-27T02:26:24.867Z,94361.60
2023-02-27T02:28:52.525Z,94361.20
2023-02-27T02:31:20.070Z,94364.80
2023-02-27T02:33:47.657Z,94371.80
2023-02-27T02:36:15.112Z,94372.80
2023-02-27T02:38:42.625Z,94379.00
2023-02-27T02:41:10.106Z,94378.20
2023-02-27T02:43:37.804Z,94382.40
2023-02-27T02:46:05.317Z,94387.60
2023-02-27T02:48:33.171Z,94387.40
2023-02-27T02:51:00.652Z,94387.20
2023-02-27T02:53:36.122Z,94395.20
2023-02-27T02:56:04.432Z,94391.40
2023-02-27T02:58:31.945Z,94395.00
2023-02-27T03:00:59.601Z,94397.40
2023-02-27T03:03:27.131Z,94400.00
2023-02-27T03:05:54.557Z,94402.20
2023-02-27T03:08:22.108Z,94407.00
2023-02-27T03:10:49.664Z,94410.60
2023-02-27T03:13:17.978Z,94410.80
2023-02-27T03:15:45.416Z,94409.40
2023-02-27T03:18:17.585Z,94408.00
2023-02-27T03:20:45.120Z,94412.20
2023-02-27T03:23:12.706Z,94415.80
2023-02-27T03:25:40.412Z,94419.20
2023-02-27T03:28:08.317Z,94423.60
2023-02-27T03:30:36.008Z,94426.80
2023-02-27T03:33:03.717Z,94425.00
2023-02-27T03:35:31.161Z,94429.40
2023-02-27T03:37:58.858Z,94433.60
2023-02-27T03:40:26.392Z,94443.20
2023-02-27T03:42:53.926Z,94447.80
2023-02-27T03:45:21.426Z,94450.20
2023-02-27T03:47:49.141Z,94450.60
2023-02-27T03:50:16.595Z,94454.00
2023-02-27T03:52:44.048Z,94456.00
2023-02-27T03:55:11.570Z,94463.60
2023-02-27T03:57:39.040Z,94460.40
2023-02-27T04:00:06.533Z,94463.40
2023-02-27T04:02:34.065Z,94465.20
2023-02-27T04:05:01.564Z,94464.00
2023-02-27T04:07:29.084Z,94463.20
2023-02-27T04:09:56.545Z,94465.60
2023-02-27T04:12:24.036Z,94467.60
2023-02-27T04:14:51.629Z,94471.40
2023-02-27T04:17:19.111Z,94470.00
2023-02-27T04:19:46.571Z,94469.40
2023-02-27T04:22:14.044Z,94464.40
2023-02-27T04:24:41.826Z,94469.20
2023-02-27T04:27:09.453Z,94467.80
2023-02-27T04:29:36.914Z,94472.20
2023-02-27T04:32:04.551Z,94470.40
2023-02-27T04:34:32.103Z,94473.80
2023-02-27T04:37:01.351Z,94476.40
2023-02-27T04:39:28.881Z,94476.20
2023-02-27T04:41:56.327Z,94476.60
2023-02-27T04:44:23.817Z,94476.20
2023-02-27T04:46:51.340Z,94477.20
2023-02-27T04:49:19.375Z,94476.80
2023-02-27T04:51:46.938Z,94472.60
2023-02-27T04:54:14.487Z,94479.60
2023-02-27T04:56:42.136Z,94481.80
2023-02-27T04:59:09.752Z,94477.00
2023-02-27T05:01:37.341Z,94482.60
2023-02-27T05:04:04.859Z,94481.60
2023-02-27T05:06:32.315Z,94474.20
2023-02-27T05:08:59.834Z,94477.80
2023-02-27T05:11:27.629Z,94471.00
2023-02-27T05:13:55.250Z,94478.60
2023-02-27T05:16:22.822Z,94479.20
2023-02-27T05:18:50.302Z,94475.40
2023-02-27T05:21:17.719Z,94477.80
2023-02-27T05:23:45.228Z,94476.60
2023-02-27T05:26:12.676Z,94479.40
2023-02-27T05:28:40.341Z,94482.80
2023-02-27T05:31:07.820Z,94480.60
2023-02-27T05:33:35.260Z,94485.40
2023-02-27T05:36:02.718Z,94488.40
2023-02-27T05:38:30.407Z,94487.60
2023-02-27T05:40:58.038Z,94492.80
2023-02-27T05:43:25.495Z,94497.20
2023-02-27T05:45:53.048Z,94502.60
2023-02-27T05:48:20.551Z,94505.40
2023-02-27T05:50:48.134Z,94501.20
2023-02-27T05:53:15.845Z,94506.20
2023-02-27T05:55:43.306Z,94509.00
2023-02-27T05:58:11.031Z,94516.00
2023-02-27T06:00:38.797Z,94521.40
2023-02-27T06:03:06.616Z,94526.80
2023-02-27T06:05:34.269Z,94531.40
2023-02-27T06:08:01.831Z,94530.80
2023-02-27T06:10:29.360Z,94532.80
2023-02-27T06:12:56.925Z,94533.80
2023-02-27T06:15:24.438Z,94538.00
2023-02-27T06:17:51.864Z,94535.40
2023-02-27T06:20:19.298Z,94539.20
2023-02-27T06:22:46.901Z,94540.60
2023-02-27T06:25:14.477Z,94546.40
2023-02-27T06:27:42.033Z,94548.80
2023-02-27T06:30:09.835Z,94545.40
2023-02-27T06:32:37.331Z,94546.40
2023-02-27T06:35:06.298Z,94555.60
2023-02-27T06:37:33.774Z,94557.60
2023-02-27T06:40:01.322Z,94565.40
2023-02-27T06:42:28.779Z,94564.20
2023-02-27T06:44:56.283Z,94567.40
2023-02-27T06:47:23.754Z,94563.60
2023-02-27T06:49:51.213Z,94566.20
2023-02-27T06:52:18.980Z,94570.80
2023-02-27T06:54:46.431Z,94571.00
2023-02-27T06:57:13.967Z,94573.20
2023-02-27T06:59:42.712Z,94578.00
2023-02-27T07:02:10.426Z,94586.60
2023-02-27T07:04:37.883Z,94587.00
2023-02-27T07:07:34.177Z,94592.60
2023-02-27T07:09:52.943Z,94591.60
2023-02-27T07:12:20.465Z,94599.40
2023-02-27T07:14:47.990Z,94597.00
2023-02-27T07:17:15.444Z,94597.60
2023-02-27T07:19:42.932Z,94599.80
2023-02-27T07:22:10.471Z,94602.00
2023-02-27T07:24:37.932Z,94601.60
2023-02-27T07:27:05.424Z,94597.40
2023-02-27T07:29:33.006Z,94606.60
2023-02-27T07:32:01.486Z,94608.20
2023-02-27T07:34:29.128Z,94606.60
2023-02-27T07:36:56.590Z,94608.60
2023-02-27T07:39:24.029Z,94608.80
2023-02-27T07:41:51.678Z,94606.60
2023-02-27T07:44:19.188Z,94608.20
2023-02-27T07:46:47.433Z,94600.60
2023-02-27T07:49:15.071Z,94599.00
2023-02-27T07:51:42.529Z,94594.60
2023-02-27T07:54:10.087Z,94597.40
2023-02-27T07:56:37.765Z,94598.80
2023-02-27T07:59:05.222Z,94599.60
2023-02-27T08:01:32.748Z,94597.00
2023-02-27T08:04:00.346Z,94598.40
2023-02-27T08:06:28.276Z,94605.80
2023-02-27T08:08:55.977Z,94609.60
2023-02-27T08:11:23.540Z,94611.80
2023-02-27T08:14:06.452Z,94608.40
2023-02-27T08:16:34.054Z,94609.40
2023-02-27T08:19:01.648Z,94611.20
2023-02-27T08:21:29.527Z,94613.20
2023-02-27T08:23:57.295Z,94620.20
2023-02-27T08:26:24.873Z,94618.80
2023-02-27T08:28:52.299Z,94622.60
2023-02-27T08:31:19.949Z,94631.40
2023-02-27T08:33:49.621Z,94637.40
2023-02-27T08:36:20.715Z,94639.60
2023-02-27T08:38:48.163Z,94643.00
2023-02-27T08:41:15.675Z,94644.40
2023-02-27T08:43:43.190Z,94650.20
2023-02-27T08:46:11.177Z,94653.60
2023-02-27T08:48:39.391Z,94653.00
2023-02-27T08:51:07.109Z,94656.20
2023-02-27T08:53:34.565Z,94658.60
2023-02-27T08:56:02.010Z,94665.60
2023-02-27T08:58:29.851Z,94669.80
2023-02-27T09:00:57.380Z,94669.60
2023-02-27T09:03:28.564Z,94663.80
2023-02-27T09:05:56.398Z,94665.40
2023-02-27T09:08:23.887Z,94670.40
2023-02-27T09:10:51.393Z,94674.80
2023-02-27T09:13:19.781Z,94675.60
2023-02-27T09:15:47.306Z,94674.00
2023-02-27T09:18:14.926Z,94678.60
2023-02-27T09:20:42.409Z,94677.00
2023-02-27T09:23:09.873Z,94677.80
2023-02-27T09:25:37.344Z,94675.20
2023-02-27T09:28:04.877Z,94674.00
2023-02-27T09:30:33.182Z,94678.80
2023-02-27T09:33:00.822Z,94688.80
2023-02-27T09:35:28.672Z,94682.40
2023-02-27T09:37:56.175Z,94685.40
2023-02-27T09:40:23.741Z,94680.60
2023-02-27T09:42:51.447Z,94687.60
2023-02-27T09:45:19.025Z,94691.60
2023-02-27T09:47:48.055Z,94689.20
2023-02-27T09:50:15.657Z,94695.60
2023-02-27T09:52:43.152Z,94700.40
2023-02-27T09:55:10.579Z,94692.20
2023-02-27T09:57:38.143Z,94692.60
2023-02-27T10:00:07.113Z,94693.80
2023-02-27T10:02:34.709Z,94699.60
2023-02-27T10:05:02.339Z,94707.80
2023-02-27T10:07:29.833Z,94705.20
2023-02-27T10:09:57.388Z,94710.60
2023-02-27T10:12:24.929Z,94711.00
2023-02-27T10:14:52.464Z,94714.20
2023-02-27T10:17:19.933Z,94708.00
2023-02-27T10:19:47.502Z,94710.20
2023-02-27T10:22:14.965Z,94707.80
2023-02-27T10:24:42.414Z,94708.60
2023-02-27T10:27:09.874Z,94711.20
2023-02-27T10:29:39.701Z,94715.00
2023-02-27T10:32:07.267Z,94715.80
2023-02-27T10:34:34.797Z,94715.20
2023-02-27T10:37:02.407Z,94715.40
2023-02-27T10:39:30.552Z,94713.80
2023-02-27T10:41:58.078Z,94714.20
2023-02-27T10:44:25.550Z,94712.20
2023-02-27T10:46:53.512Z,94710.40
2023-02-27T10:49:21.029Z,94711.60
2023-02-27T10:51:48.532Z,94712.40
2023-02-27T10:54:16.073Z,94710.80
2023-02-27T10:56:43.578Z,94709.40
2023-02-27T10:59:11.015Z,94714.00
2023-02-27T11:01:38.644Z,94715.80
2023-02-27T11:04:06.183Z,94713.80
2023-02-27T11:06:33.711Z,94715.20
2023-02-27T11:09:01.633Z,94719.20
2023-02-27T11:11:29.434Z,94717.20
2023-02-27T11:13:57.060Z,94723.60
2023-02-27T11:16:24.652Z,94727.40
2023-02-27T11:18:52.154Z,94732.00
2023-02-27T11:21:20.209Z,94729.80
2023-02-27T11:23:47.718Z,94735.80
2023-02-27T11:26:15.394Z,94740.00
2023-02-27T11:28:42.853Z,94739.00
2023-02-27T11:31:10.327Z,94737.00
2023-02-27T11:33:37.819Z,94743.20
2023-02-27T11:36:05.375Z,94740.60
2023-02-27T11:38:34.715Z,94741.80
2023-02-27T11:41:02.244Z,94739.00
2023-02-27T11:43:29.695Z,94740.20
2023-02-27T11:46:12.932Z,94740.40
2023-02-27T11:48:44.779Z,94736.40
2023-02-27T11:51:12.313Z,94739.60
2023-02-27T11:53:39.738Z,94743.80
2023-02-27T11:56:07.430Z,94740.80
2023-02-27T11:58:35.131Z,94736.00
2023-02-27T12:01:02.564Z,94736.60
2023-02-27T12:03:30.342Z,94730.00
2023-02-27T12:05:57.922Z,94732.20
2023-02-27T12:08:25.580Z,94731.80
2023-02-27T12:10:55.588Z,94731.80
2023-02-27T12:13:26.812Z,94730.40
2023-02-27T12:15:55.829Z,94729.00
2023-02-27T12:18:23.363Z,94727.20
2023-02-27T12:20:50.839Z,94726.20
2023-02-27T12:23:18.858Z,94724.80
2023-02-27T12:25:46.516Z,94729.40
2023-02-27T12:28:14.019Z,94729.80
2023-02-27T12:30:41.626Z,94732.00
2023-02-27T12:33:09.115Z,94732.60
2023-02-27T12:35:36.621Z,94735.80
2023-02-27T12:38:06.970Z,94730.00
2023-02-27T12:40:34.927Z,94728.00
2023-02-27T12:43:02.392Z,94732.60
2023-02-27T12:45:29.941Z,94734.40
2023-02-27T12:47:57.555Z,94730.80
2023-02-27T12:50:25.031Z,94735.20
2023-02-27T12:52:52.649Z,94738.00
2023-02-27T12:55:20.195Z,94739.60
2023-02-27T12:57:47.930Z,94738.20
2023-02-27T13:00:15.444Z,94744.80
2023-02-27T13:02:42.977Z,94746.20
2023-02-27T13:05:10.523Z,94751.00
2023-02-27T13:07:38.110Z,94750.80
2023-02-27T13:10:05.651Z,94753.00
2023-02-27T13:12:33.084Z,94751.60
2023-02-27T13:15:00.921Z,94762.20
2023-02-27T13:17:28.408Z,94758.20
2023-02-27T13:19:55.914Z,94757.20
2023-02-27T13:22:23.429Z,94757.20
2023-02-27T13:24:50.907Z,94760.20
2023-02-27T13:27:18.610Z,94762.00
2023-02-27T13:29:47.713Z,94760.80
2023-02-27T13:32:15.493Z,94758.20
2023-02-27T13:34:43.083Z,94760.20
2023-02-27T13:37:10.653Z,94762.80
2023-02-27T13:39:38.935Z,94762.20
2023-02-27T13:42:06.537Z,94761.80
2023-02-27T13:44:34.029Z,94761.60
2023-02-27T13:47:01.522Z,94764.20
2023-02-27T13:49:31.315Z,94763.80
2023-02-27T13:52:00.409Z,94766.00
2023-02-27T13:54:27.952Z,94763.80
2023-02-27T13:56:57.483Z,94765.20
2023-02-27T13:59:25.343Z,94763.20
2023-02-27T14:01:53.245Z,94758.60
2023-02-27T14:04:20.720Z,94758.40
2023-02-27T14:06:48.345Z,94754.00
2023-02-27T14:09:15.902Z,94758.60
2023-02-27T14:11:43.394Z,94759.80
2023-02-27T14:14:11.053Z,94760.80
2023-02-27T14:16:41.346Z,94757.80
2023-02-27T14:19:08.802Z,94761.20
2023-02-27T14:21:36.285Z,94760.20
2023-02-27T14:24:03.780Z,94760.40
2023-02-27T14:26:31.268Z,94758.40
2023-02-27T14:29:01.217Z,94762.20
2023-02-27T14:31:29.077Z,94760.80
2023-02-27T14:33:59.132Z,94763.00
2023-02-27T14:36:26.778Z,94766.40
2023-02-27T14:38:54.290Z,94769.40
2023-02-27T14:41:21.775Z,94774.00
2023-02-27T14:43:55.989Z,94772.00
2023-02-27T14:46:23.697Z,94776.20
2023-02-27T14:48:51.210Z,94776.00
2023-02-27T14:51:18.662Z,94773.80
2023-02-27T14:53:46.104Z,94779.80
2023-02-27T14:56:13.576Z,94778.40
2023-02-27T14:58:41.089Z,94780.60
2023-02-27T15:01:08.611Z,94780.40
2023-02-27T15:03:36.311Z,94786.00
2023-02-27T15:06:04.000Z,94785.00
2023-02-27T15:08:31.476Z,94788.80
2023-02-27T15:10:58.959Z,94790.40
2023-02-27T15:13:26.638Z,94793.00
2023-02-27T15:15:56.980Z,94796.80
2023-02-27T15:18:26.252Z,94796.00
2023-02-27T15:20:53.770Z,94799.20
2023-02-27T15:23:21.214Z,94802.40
2023-02-27T15:25:48.643Z,94803.40
2023-02-27T15:28:16.295Z,94809.20
2023-02-27T15:30:43.767Z,94805.40
2023-02-27T15:33:11.223Z,94808.40
2023-02-27T15:35:38.876Z,94812.60
2023-02-27T15:38:07.593Z,94816.00
2023-02-27T15:40:36.208Z,94820.80
2023-02-27T15:43:03.873Z,94827.60
2023-02-27T15:45:31.439Z,94830.20
2023-02-27T15:47:58.888Z,94828.80
2023-02-27T15:50:26.664Z,94835.40
2023-02-27T15:52:54.224Z,94836.40
2023-02-27T15:55:21.691Z,94836.20
2023-02-27T15:58:01.921Z,94843.40
2023-02-27T16:00:30.039Z,94846.60
2023-02-27T16:02:57.666Z,94845.80
2023-02-27T16:05:25.179Z,94850.60
2023-02-27T16:07:52.645Z,94858.00
2023-02-27T16:10:20.324Z,94861.80
2023-02-27T16:12:47.789Z,94861.60
2023-02-27T16:15:15.340Z,94859.40
2023-02-27T16:17:42.821Z,94863.00
2023-02-27T16:20:10.251Z,94866.00
2023-02-27T16:22:39.289Z,94869.00
2023-02-27T16:25:06.862Z,94875.80
2023-02-27T16:27:34.284Z,94874.40
2023-02-27T16:30:02.985Z,94880.40
2023-02-27T16:32:30.705Z,94884.80
2023-02-27T16:34:58.257Z,94887.60
2023-02-27T16:37:25.685Z,94890.00
2023-02-27T16:39:54.494Z,94896.40
2023-02-27T16:42:22.117Z,94895.00
2023-02-27T16:44:49.591Z,94902.20
2023-02-27T16:47:17.303Z,94900.60
2023-02-27T16:49:46.393Z,94900.80
2023-02-27T16:52:13.928Z,94900.20
2023-02-27T16:54:41.456Z,94908.80
2023-02-27T16:57:08.973Z,94911.60
2023-02-27T16:59:36.482Z,94914.20
2023-02-27T17:02:04.357Z,94912.20
2023-02-27T17:04:31.984Z,94913.80
2023-02-27T17:06:59.543Z,94920.40
2023-02-27T17:09:29.241Z,94919.60
2023-02-27T17:11:56.819Z,94923.40
2023-02-27T17:14:24.297Z,94931.40
2023-02-27T17:16:51.853Z,94934.40
2023-02-27T17:19:21.470Z,94935.80
2023-02-27T17:21:49.165Z,94934.60
2023-02-27T17:24:16.684Z,94937.40
2023-02-27T17:26:44.162Z,94943.80
2023-02-27T17:29:12.191Z,94943.40
2023-02-27T17:31:41.861Z,94945.00
2023-02-27T17:34:09.359Z,94942.80
2023-02-27T17:36:36.843Z,94944.80
2023-02-27T17:39:04.332Z,94944.80
2023-02-27T17:41:31.843Z,94949.20
2023-02-27T17:43:59.290Z,94948.60
2023-02-27T17:46:27.190Z,94950.00
2023-02-27T17:48:56.252Z,94953.60
2023-02-27T17:51:23.808Z,94956.20
2023-02-27T17:53:51.315Z,94962.20
2023-02-27T17:56:18.735Z,94956.40
2023-02-27T17:58:46.248Z,94964.80
2023-02-27T18:01:13.983Z,94964.40
2023-02-27T18:03:41.629Z,94970.20
2023-02-27T18:06:09.502Z,94973.80
2023-02-27T18:08:36.973Z,94972.80
2023-02-27T18:11:04.633Z,94976.00
2023-02-27T18:13:32.179Z,94978.80
2023-02-27T18:15:59.740Z,94980.20
2023-02-27T18:18:27.371Z,94981.80
2023-02-27T18:20:54.922Z,94982.60
2023-02-27T18:23:22.692Z,94986.60
2023-02-27T18:25:50.182Z,94986.80
2023-02-27T18:28:17.642Z,94988.40
2023-02-27T18:30:45.300Z,94989.80
2023-02-27T18:33:12.803Z,94996.20
2023-02-27T18:35:40.266Z,94999.00
2023-02-27T18:38:07.860Z,95003.40
2023-02-27T18:40:35.560Z,95003.00
2023-02-27T18:43:03.194Z,95006.00
2023-02-27T18:45:30.948Z,95005.80
2023-02-27T18:47:58.442Z,95004.00
2023-02-27T18:50:26.195Z,95009.40
2023-02-27T18:52:56.097Z,95011.40
2023-02-27T18:55:23.775Z,95005.40
2023-02-27T18:57:51.258Z,95008.60
2023-02-27T19:00:19.166Z,95010.80
2023-02-27T19:02:46.691Z,95012.60
2023-02-27T19:05:15.057Z,95011.80
2023-02-27T19:07:42.924Z,95015.80
2023-02-27T19:10:10.478Z,95019.80
2023-02-27T19:12:38.169Z,95024.80
2023-02-27T19:15:05.774Z,95023.60
2023-02-27T19:17:33.668Z,95029.80
2023-02-27T19:20:01.461Z,95029.80
2023-02-27T19:22:30.512Z,95030.80
2023-02-27T19:24:58.194Z,95036.00
2023-02-27T19:27:25.661Z,95035.00
2023-02-27T19:29:53.353Z,95035.40
2023-02-27T19:32:21.651Z,95036.60
2023-02-27T19:34:49.234Z,95034.20
2023-02-27T19:37:16.979Z,95039.20
2023-02-27T19:39:44.667Z,95039.60
2023-02-27T19:42:12.203Z,95042.00
2023-02-27T19:44:40.658Z,95044.00
2023-02-27T19:47:08.265Z,95047.00
2023-02-27T19:49:35.848Z,95050.20
2023-02-27T19:52:03.587Z,95056.60
2023-02-27T19:54:31.114Z,95055.40
2023-02-27T19:56:58.990Z,95055.40
2023-02-27T19:59:26.697Z,95059.40
2023-02-27T20:01:54.178Z,95060.40
2023-02-27T20:04:21.899Z,95058.60
2023-02-27T20:06:50.888Z,95058.60
2023-02-27T20:09:18.339Z,95059.20
2023-02-27T20:11:45.898Z,95060.20
2023-02-27T20:14:14.031Z,95057.20
2023-02-27T20:16:41.628Z,95059.60
2023-02-27T20:19:10.559Z,95056.60
2023-02-27T20:21:38.074Z,95054.00
2023-02-27T20:24:05.574Z,95050.40
2023-02-27T20:26:33.189Z,95054.00
2023-02-27T20:29:00.776Z,95056.00
2023-02-27T20:31:28.785Z,95052.60
2023-02-27T20:33:57.305Z,95057.40
2023-02-27T20:36:25.031Z,95051.20
2023-02-27T20:38:52.707Z,95053.40
2023-02-27T20:41:20.225Z,95052.20
2023-02-27T20:43:47.745Z,95051.60
2023-02-27T20:46:15.950Z,95053.00
2023-02-27T20:48:43.673Z,95056.20
2023-02-27T20:51:11.391Z,95055.80
2023-02-27T20:53:39.162Z,95058.60
2023-02-27T20:56:06.662Z,95056.40
2023-02-27T20:58:34.268Z,95060.80
2023-02-27T21:01:04.753Z,95064.00
2023-02-27T21:03:38.483Z,95060.40
2023-02-27T21:06:06.332Z,95060.60
2023-02-27T21:08:33.799Z,95060.20
2023-02-27T21:11:01.450Z,95062.40
2023-02-27T21:13:28.907Z,95068.40
2023-02-27T21:15:56.426Z,95067.60
2023-02-27T21:18:23.916Z,95068.60
2023-02-27T21:20:51.554Z,95066.00
2023-02-27T21:23:19.019Z,95070.40
2023-02-27T21:25:46.453Z,95072.20
2023-02-27T21:28:14.481Z,95072.20
2023-02-27T21:30:41.984Z,95074.40
2023-02-27T21:33:09.489Z,95076.80
2023-02-27T21:35:37.092Z,95077.40
2023-02-27T21:38:05.309Z,95078.40
2023-02-27T21:40:32.734Z,95080.40
2023-02-27T21:43:00.280Z,95083.60
2023-02-27T21:45:27.789Z,95086.20
2023-02-27T21:47:55.345Z,95088.20
2023-02-27T21:50:23.348Z,95089.20
2023-02-27T21:52:50.963Z,95093.20
2023-02-27T21:55:18.629Z,95092.80
2023-02-27T21:57:46.293Z,95092.40
2023-02-27T22:00:13.919Z,95089.20
2023-02-27T22:02:41.568Z,95090.80
2023-02-27T22:05:09.248Z,95093.40
2023-02-27T22:07:37.465Z,95091.00
2023-02-27T22:10:04.978Z,95089.20
2023-02-27T22:12:32.608Z,95084.20
2023-02-27T22:15:00.128Z,95087.20
2023-02-27T22:17:27.622Z,95088.60
2023-02-27T22:19:55.116Z,95092.60
2023-02-27T22:22:22.629Z,95092.00
2023-02-27T22:24:50.104Z,95092.80
2023-02-27T22:27:17.787Z,95091.40
2023-02-27T22:29:45.210Z,95087.20
2023-02-27T22:32:12.704Z,95093.00
2023-02-27T22:34:40.270Z,95092.00
2023-02-27T22:37:07.746Z,95086.00
2023-02-27T22:39:35.181Z,95090.60
2023-02-27T22:42:03.347Z,95097.80
2023-02-27T22:44:30.780Z,95094.00
2023-02-27T22:46:58.248Z,95089.00
2023-02-27T22:49:25.790Z,95089.40
2023-02-27T22:51:53.317Z,95091.00
2023-02-27T22:54:20.791Z,95094.80
2023-02-27T22:56:48.626Z,95097.40
2023-02-27T22:59:16.692Z,95092.40
2023-02-27T23:01:44.172Z,95093.40
2023-02-27T23:04:11.770Z,95085.20
2023-02-27T23:06:39.412Z,95087.60
2023-02-27T23:09:06.883Z,95085.80
2023-02-27T23:11:34.435Z,95079.20
2023-02-27T23:14:01.950Z,95081.40
2023-02-27T23:16:29.473Z,95082.80
2023-02-27T23:18:57.147Z,95086.60
2023-02-27T23:21:24.576Z,95084.00
2023-02-27T23:23:53.860Z,95089.60
2023-02-27T23:26:21.629Z,95096.80
2023-02-27T23:28:49.121Z,95102.80
2023-02-27T23:31:16.586Z,95107.60
2023-02-27T23:33:44.311Z,95110.20
2023-02-27T23:36:11.756Z,95113.80
2023-02-27T23:38:39.711Z,95117.80
2023-02-27T23:41:07.231Z,95121.60
2023-02-27T23:43:34.708Z,95121.40
2023-02-27T23:46:02.259Z,95132.20
2023-02-27T23:48:29.834Z,95134.40
2023-02-27T23:50:57.278Z,95138.00
2023-02-27T23:53:24.720Z,95139.80
2023-02-27T23:55:52.239Z,95136.80
2023-02-27T23:58:19.905Z,95136.20
